Detall de PIREP

Printer-friendly versionPDF version

[2014/11/24 13:40:00]
Flight IATA:CT3200
Pilot Number:026
Company ICAO:CAT
Aircraft Type:DC85/A
PAX:132
Aircraft Registration:PAX
Departing Airport: LEPA
Destination Airport: EHAM
Alternate Airport:EHRD
Online: VATSIM
Route: GALAT UN861 FISTO UY156 ADABI UN858 VANAD UN874 VEKIN UN873 FERDI UY18 DENUT
Flight Level:F300
No Slew and time accel
No pause
Crash detect
Detect pilot in Cockpit between each 30 and 45 minutes
13:40 Zero fuel Weight: 178003 Lbs, Fuel Weight: 42780 Lbs
13:40 VATSIM:LEPA 241300Z 21009KT 180V240 9999 FEW035 23/17 Q1016 NOSIG
13:40 VATSIM:EHAM 241325Z 26009KT 230V290 9999 FEW032 SCT040 10/05 Q1025 NOSIG
13:40 ROUTE CT3200
13:42 Parking Brakes off
13:53 Take-off
13:53 Take off Weight: 219483 Lbs
13:53 Wind: 212º @ 008 Knots Heading: 238º
13:53 POS N39º 33´ 13´´ E002º 43´ 26´´
13:53 Gear Up: 173 Knots
13:53 Flaps:3 at 173 Knots
13:54 Flaps:2 at 187 Knots
13:55 Flaps:1 at 189 Knots
13:56 Flaps:0 at 200 Knots
14:06 TOC
14:06 Fuel Weight: 37099 Lb
14:08 Wind:081º@017 Knots Heading: 353º Ground Speed: 445 Knots Altitude 31778 ft
14:23 Wind:056º@020 Knots Heading: 355º Ground Speed: 480 Knots Altitude 32109 ft
14:38 Wind:209º@015 Knots Heading: 354º Ground Speed: 487 Knots Altitude 32139 ft
14:53 Wind:036º@016 Knots Heading: 005º Ground Speed: 461 Knots Altitude 32142 ft
15:08 Wind:051º@034 Knots Heading: 020º Ground Speed: 437 Knots Altitude 32244 ft
15:19 Gear Down: 305 Knots
15:19 Gear Up: 305 Knots
15:23 Wind:049º@036 Knots Heading: 049º Ground Speed: 429 Knots Altitude 32306 ft
15:34 TOD
15:34 Fuel Weight: 17305 Lb
15:38 Wind:021º@013 Knots Heading: 002º Ground Speed: 428 Knots Altitude 24101 ft
15:53 Wind:270º@016 Knots Heading: 038º Ground Speed: 235 Knots Altitude 7362 ft
15:54 Flaps:1 at 200 Knots
15:59 Flaps:2 at 138 Knots
16:02 Flaps:3 at 202 Knots
16:03 Gear Down: 215 Knots
16:04 Flaps:4 at 166 Knots
16:04 Flaps:5 at 156 Knots
16:05 TouchDown:Rate -203 ft/min Speed: 128 Knots
16:05 VATSIM:EHAM 241555Z 26006KT 9999 FEW027 SCT043 07/05 Q1026 NOSIG
16:05 Land
16:05 Wind:263º@006 Knots
16:05 Heading: 265º
16:05 Flight Duration: 02:12
16:05 Landing Weight: 191774 Lbs
16:05 POS N52º 19´ 03´´ E004º 46´ 21´´
16:11 Parking brakes on
16:11 Block to Block Duration: 02:29
16:11 Final Fuel: 13302 Lbls
16:11 Spent Fuel: 29477 Lbls
16:11 Flight Length: 769 NM
16:11 TOD Land Length: 148 NM

Exportar CSV

Powered by Drupal - Modified by Danger4k